Mesa.AZweather.com - Mesa, AZ
   Red Mountain Frwy and University Dr., El 1518 ft.
        --- Sunday  Dec. 1, 2019 ---
 
 High Temperature ..  68F at 15:23
 Low Temperature ...  35F at 05:43
 
 High Humidity .....  84% at 08:02
 Low Humidity ......  28% at 15:51
 
 Rainfall Total ....  0.00 in.
 
 High Wind Speed ... ---
                     
 
 High Barometer ....  30.15 at 10:02
 Low Barometer .....  30.05 at 14:27
 
Dew Point    High .... 40   Low ..... 29
 
 
 Time   Temp  Humi  Rain     Baro  DewPt  Wind
00:00,  48F, 52%, 0.00 in, 30.10, 31F, ---
00:30,  48F, 51%, 0.00 in, 30.09, 31F, ---
01:00,  48F, 49%, 0.00 in, 30.09, 30F, ---
01:30,  47F, 55%, 0.00 in, 30.09, 31F, ---
02:00,  44F, 64%, 0.00 in, 30.08, 33F, ---
02:30,  41F, 68%, 0.00 in, 30.09, 31F, ---
03:00,  40F, 72%, 0.00 in, 30.08, 31F, ---
03:30,  39F, 75%, 0.00 in, 30.09, 32F, ---
04:00,  38F, 78%, 0.00 in, 30.09, 31F, ---
04:30,  37F, 80%, 0.00 in, 30.10, 32F, ---
05:00,  36F, 81%, 0.00 in, 30.10, 30F, ---
05:30,  36F, 81%, 0.00 in, 30.10, 30F, ---
06:00,  36F, 83%, 0.00 in, 30.09, 31F, ---
06:30,  36F, 83%, 0.00 in, 30.10, 31F, ---
07:00,  36F, 82%, 0.00 in, 30.12, 31F, ---
07:30,  35F, 82%, 0.00 in, 30.12, 31F, ---
08:00,  36F, 83%, 0.00 in, 30.13, 31F, ---
08:30,  39F, 84%, 0.00 in, 30.13, 35F, ---
09:00,  45F, 78%, 0.00 in, 30.13, 38F, ---
09:30,  51F, 56%, 0.00 in, 30.14, 37F, ---
10:00,  55F, 41%, 0.00 in, 30.14, 32F, ---
10:30,  57F, 45%, 0.00 in, 30.14, 36F, ---
11:00,  57F, 41%, 0.00 in, 30.14, 34F, ---
11:30,  59F, 38%, 0.00 in, 30.12, 33F, ---
12:00,  61F, 34%, 0.00 in, 30.11, 32F, ---
12:30,  62F, 32%, 0.00 in, 30.10, 32F, ---
13:00,  63F, 31%, 0.00 in, 30.09, 32F, ---
13:30,  65F, 31%, 0.00 in, 30.07, 33F, ---
14:00,  66F, 30%, 0.00 in, 30.07, 34F, ---
14:30,  66F, 33%, 0.00 in, 30.06, 36F, ---
15:00,  67F, 32%, 0.00 in, 30.06, 36F, ---
15:30,  68F, 31%, 0.00 in, 30.06, 36F, ---
16:00,  67F, 29%, 0.00 in, 30.05, 33F, ---
16:30,  66F, 31%, 0.00 in, 30.06, 35F, ---
17:00,  65F, 32%, 0.00 in, 30.06, 34F, ---
17:30,  61F, 35%, 0.00 in, 30.06, 33F, ---
18:00,  58F, 42%, 0.00 in, 30.06, 34F, ---
18:30,  54F, 49%, 0.00 in, 30.06, 35F, ---
19:00,  52F, 54%, 0.00 in, 30.07, 36F, ---
19:30,  51F, 54%, 0.00 in, 30.07, 36F, ---
20:00,  50F, 55%, 0.00 in, 30.08, 35F, ---
20:30,  49F, 57%, 0.00 in, 30.08, 34F, ---
21:00,  48F, 57%, 0.00 in, 30.08, 34F, ---
21:30,  47F, 60%, 0.00 in, 30.09, 33F, ---
22:00,  47F, 62%, 0.00 in, 30.09, 34F, ---
22:30,  46F, 64%, 0.00 in, 30.10, 35F, ---
23:00,  45F, 66%, 0.00 in, 30.10, 34F, ---
23:30,  43F, 71%, 0.00 in, 30.10, 34F, ---
23:59,  42F, 74%, 0.00 in, 30.10, 35F, ---